Falcon Heights, Minnesota
Current Conditions -  °F | °C
As of 4:53 AM on Friday 24 Oct 2014 (Local Time) from KSTP Reporting Station
Haze Haze  
Wind Chill: 43°   Ceiling: Unl
Heat Index: 46°   Visibility: 5mi
Dew Point: 46°   Wind: 6mph
Humidity: 100%   Direction: 150°SSE
Pressure: 29.95"   Gusts: NA
Location:  45.0123°N, 93.1559°W
Report Text: KSTP 240953Z AUTO 15005KT 5SM BR CLR 08/08 A2995 RMK AO2 SLP139 T00780078 $
Loading
Personal Weather Stations






























Interactive Weather Map
Tropical Storm Tracking
New forecast layout! Learn more

10-Day Weather Forecast

Advertisements
Track Severe Weather on mobile